sensor_id;sensor_type;location;lat;lon;timestamp;P1;durP1;ratioP1;P2;durP2;ratioP2
19776;SDS011;10047;42.490;26.012;2023-05-07T00:01:15;13.02;;;8.75;;
19776;SDS011;10047;42.490;26.012;2023-05-07T00:03:41;13.70;;;8.85;;
19776;SDS011;10047;42.490;26.012;2023-05-07T00:06:06;12.27;;;8.77;;
19776;SDS011;10047;42.490;26.012;2023-05-07T00:08:32;12.40;;;8.70;;
19776;SDS011;10047;42.490;26.012;2023-05-07T00:10:57;10.70;;;8.93;;
19776;SDS011;10047;42.490;26.012;2023-05-07T00:13:23;13.40;;;8.77;;
19776;SDS011;10047;42.490;26.012;2023-05-07T00:15:48;13.50;;;8.77;;
19776;SDS011;10047;42.490;26.012;2023-05-07T00:18:13;12.65;;;9.18;;
19776;SDS011;10047;42.490;26.012;2023-05-07T00:20:39;12.68;;;9.55;;
19776;SDS011;10047;42.490;26.012;2023-05-07T00:23:04;17.95;;;9.63;;
19776;SDS011;10047;42.490;26.012;2023-05-07T00:25:30;14.40;;;9.27;;
19776;SDS011;10047;42.490;26.012;2023-05-07T00:27:55;11.10;;;8.70;;
19776;SDS011;10047;42.490;26.012;2023-05-07T00:30:22;12.55;;;8.68;;
19776;SDS011;10047;42.490;26.012;2023-05-07T00:32:47;11.73;;;8.27;;
19776;SDS011;10047;42.490;26.012;2023-05-07T00:35:14;13.00;;;8.60;;
19776;SDS011;10047;42.490;26.012;2023-05-07T00:37:39;13.05;;;8.25;;
19776;SDS011;10047;42.490;26.012;2023-05-07T00:40:05;14.45;;;8.80;;
19776;SDS011;10047;42.490;26.012;2023-05-07T00:42:32;12.23;;;8.18;;
19776;SDS011;10047;42.490;26.012;2023-05-07T00:44:58;11.93;;;8.68;;
19776;SDS011;10047;42.490;26.012;2023-05-07T00:47:23;15.48;;;8.40;;
19776;SDS011;10047;42.490;26.012;2023-05-07T00:49:50;10.73;;;7.93;;
19776;SDS011;10047;42.490;26.012;2023-05-07T00:52:16;9.85;;;7.97;;
19776;SDS011;10047;42.490;26.012;2023-05-07T00:54:44;12.45;;;8.25;;
19776;SDS011;10047;42.490;26.012;2023-05-07T00:57:10;12.07;;;7.55;;
19776;SDS011;10047;42.490;26.012;2023-05-07T00:59:36;10.25;;;7.47;;
19776;SDS011;10047;42.490;26.012;2023-05-07T01:02:02;10.98;;;7.78;;
19776;SDS011;10047;42.490;26.012;2023-05-07T01:04:27;10.80;;;7.55;;
19776;SDS011;10047;42.490;26.012;2023-05-07T01:06:56;12.35;;;7.68;;
19776;SDS011;10047;42.490;26.012;2023-05-07T01:09:24;10.27;;;7.18;;
19776;SDS011;10047;42.490;26.012;2023-05-07T01:11:50;9.52;;;7.68;;
19776;SDS011;10047;42.490;26.012;2023-05-07T01:14:17;11.55;;;7.60;;
19776;SDS011;10047;42.490;26.012;2023-05-07T01:16:47;9.07;;;7.47;;
19776;SDS011;10047;42.490;26.012;2023-05-07T01:19:13;9.90;;;7.00;;
19776;SDS011;10047;42.490;26.012;2023-05-07T01:21:46;10.60;;;7.57;;
19776;SDS011;10047;42.490;26.012;2023-05-07T01:24:13;10.07;;;7.63;;
19776;SDS011;10047;42.490;26.012;2023-05-07T01:26:39;8.80;;;7.35;;
19776;SDS011;10047;42.490;26.012;2023-05-07T01:29:05;9.85;;;7.10;;
19776;SDS011;10047;42.490;26.012;2023-05-07T01:31:31;10.93;;;7.38;;
19776;SDS011;10047;42.490;26.012;2023-05-07T01:33:58;12.50;;;9.07;;
19776;SDS011;10047;42.490;26.012;2023-05-07T01:36:26;13.85;;;10.07;;
19776;SDS011;10047;42.490;26.012;2023-05-07T01:38:54;13.73;;;9.75;;
19776;SDS011;10047;42.490;26.012;2023-05-07T01:41:19;14.88;;;10.15;;
19776;SDS011;10047;42.490;26.012;2023-05-07T01:43:46;12.38;;;9.38;;
19776;SDS011;10047;42.490;26.012;2023-05-07T01:46:12;15.48;;;9.40;;
19776;SDS011;10047;42.490;26.012;2023-05-07T01:48:39;13.77;;;9.95;;
19776;SDS011;10047;42.490;26.012;2023-05-07T01:51:05;12.63;;;9.43;;
19776;SDS011;10047;42.490;26.012;2023-05-07T01:53:37;13.88;;;8.73;;
19776;SDS011;10047;42.490;26.012;2023-05-07T01:56:04;15.38;;;9.23;;
19776;SDS011;10047;42.490;26.012;2023-05-07T01:58:30;9.82;;;6.65;;
19776;SDS011;10047;42.490;26.012;2023-05-07T02:00:55;9.43;;;6.43;;
19776;SDS011;10047;42.490;26.012;2023-05-07T02:03:20;7.72;;;5.88;;
19776;SDS011;10047;42.490;26.012;2023-05-07T02:05:46;6.82;;;5.95;;
19776;SDS011;10047;42.490;26.012;2023-05-07T02:08:11;8.80;;;5.82;;
19776;SDS011;10047;42.490;26.012;2023-05-07T02:10:36;11.02;;;5.55;;
19776;SDS011;10047;42.490;26.012;2023-05-07T02:13:02;6.63;;;5.50;;
19776;SDS011;10047;42.490;26.012;2023-05-07T02:15:27;8.32;;;5.80;;
19776;SDS011;10047;42.490;26.012;2023-05-07T02:18:03;7.47;;;5.22;;
19776;SDS011;10047;42.490;26.012;2023-05-07T02:20:31;7.65;;;4.93;;
19776;SDS011;10047;42.490;26.012;2023-05-07T02:22:56;8.38;;;5.18;;
19776;SDS011;10047;42.490;26.012;2023-05-07T02:27:52;7.60;;;5.50;;
19776;SDS011;10047;42.490;26.012;2023-05-07T02:30:18;8.75;;;5.80;;
19776;SDS011;10047;42.490;26.012;2023-05-07T02:32:43;7.82;;;5.47;;
19776;SDS011;10047;42.490;26.012;2023-05-07T02:35:09;8.60;;;6.00;;
19776;SDS011;10047;42.490;26.012;2023-05-07T02:37:34;11.55;;;6.13;;
19776;SDS011;10047;42.490;26.012;2023-05-07T02:40:00;8.40;;;6.18;;
19776;SDS011;10047;42.490;26.012;2023-05-07T02:42:25;9.05;;;6.05;;
19776;SDS011;10047;42.490;26.012;2023-05-07T02:44:51;8.40;;;5.88;;
19776;SDS011;10047;42.490;26.012;2023-05-07T02:47:16;8.35;;;6.57;;
19776;SDS011;10047;42.490;26.012;2023-05-07T02:49:42;8.80;;;6.45;;
19776;SDS011;10047;42.490;26.012;2023-05-07T02:52:07;8.63;;;5.97;;
19776;SDS011;10047;42.490;26.012;2023-05-07T02:54:33;8.18;;;6.72;;
19776;SDS011;10047;42.490;26.012;2023-05-07T02:56:58;9.45;;;6.15;;
19776;SDS011;10047;42.490;26.012;2023-05-07T02:59:25;8.82;;;6.35;;
19776;SDS011;10047;42.490;26.012;2023-05-07T03:01:51;10.05;;;6.60;;
19776;SDS011;10047;42.490;26.012;2023-05-07T03:04:16;12.65;;;7.05;;
19776;SDS011;10047;42.490;26.012;2023-05-07T03:06:42;7.82;;;6.32;;
19776;SDS011;10047;42.490;26.012;2023-05-07T03:09:07;14.63;;;6.55;;
19776;SDS011;10047;42.490;26.012;2023-05-07T03:11:33;9.38;;;6.50;;
19776;SDS011;10047;42.490;26.012;2023-05-07T03:13:59;10.55;;;6.28;;
19776;SDS011;10047;42.490;26.012;2023-05-07T03:16:24;12.27;;;6.93;;
19776;SDS011;10047;42.490;26.012;2023-05-07T03:18:50;9.80;;;6.72;;
19776;SDS011;10047;42.490;26.012;2023-05-07T03:21:16;8.32;;;6.50;;
19776;SDS011;10047;42.490;26.012;2023-05-07T03:23:41;11.00;;;6.93;;
19776;SDS011;10047;42.490;26.012;2023-05-07T03:26:06;11.90;;;6.85;;
19776;SDS011;10047;42.490;26.012;2023-05-07T03:28:32;11.93;;;9.50;;
19776;SDS011;10047;42.490;26.012;2023-05-07T03:30:57;9.27;;;7.80;;
19776;SDS011;10047;42.490;26.012;2023-05-07T03:33:23;9.55;;;8.40;;
19776;SDS011;10047;42.490;26.012;2023-05-07T03:35:48;10.32;;;8.43;;
19776;SDS011;10047;42.490;26.012;2023-05-07T03:38:14;27.25;;;17.80;;
19776;SDS011;10047;42.490;26.012;2023-05-07T03:40:39;13.65;;;10.40;;
19776;SDS011;10047;42.490;26.012;2023-05-07T03:43:05;11.23;;;9.73;;
19776;SDS011;10047;42.490;26.012;2023-05-07T03:45:30;13.20;;;9.80;;
19776;SDS011;10047;42.490;26.012;2023-05-07T03:47:55;13.27;;;9.70;;
19776;SDS011;10047;42.490;26.012;2023-05-07T03:50:21;11.75;;;8.82;;
19776;SDS011;10047;42.490;26.012;2023-05-07T03:52:46;13.27;;;8.30;;
19776;SDS011;10047;42.490;26.012;2023-05-07T03:55:12;14.07;;;9.20;;
19776;SDS011;10047;42.490;26.012;2023-05-07T03:57:37;9.77;;;8.40;;
19776;SDS011;10047;42.490;26.012;2023-05-07T04:00:03;11.82;;;8.00;;
19776;SDS011;10047;42.490;26.012;2023-05-07T04:02:29;11.32;;;7.60;;
19776;SDS011;10047;42.490;26.012;2023-05-07T04:04:55;11.05;;;7.63;;
19776;SDS011;10047;42.490;26.012;2023-05-07T04:07:21;11.02;;;7.60;;
19776;SDS011;10047;42.490;26.012;2023-05-07T04:09:46;10.85;;;7.88;;
19776;SDS011;10047;42.490;26.012;2023-05-07T04:12:11;10.85;;;8.02;;
19776;SDS011;10047;42.490;26.012;2023-05-07T04:14:37;13.93;;;8.05;;
19776;SDS011;10047;42.490;26.012;2023-05-07T04:17:02;13.52;;;8.20;;
19776;SDS011;10047;42.490;26.012;2023-05-07T04:19:28;13.85;;;7.90;;
19776;SDS011;10047;42.490;26.012;2023-05-07T04:21:53;17.45;;;8.88;;
19776;SDS011;10047;42.490;26.012;2023-05-07T04:24:18;14.70;;;8.57;;
19776;SDS011;10047;42.490;26.012;2023-05-07T04:26:44;10.77;;;8.60;;
19776;SDS011;10047;42.490;26.012;2023-05-07T04:29:10;11.77;;;8.52;;
19776;SDS011;10047;42.490;26.012;2023-05-07T04:31:36;11.77;;;8.05;;
19776;SDS011;10047;42.490;26.012;2023-05-07T04:34:02;10.38;;;7.18;;
19776;SDS011;10047;42.490;26.012;2023-05-07T04:36:27;9.30;;;6.80;;
19776;SDS011;10047;42.490;26.012;2023-05-07T04:38:54;8.65;;;6.53;;
19776;SDS011;10047;42.490;26.012;2023-05-07T04:41:19;10.25;;;6.97;;
19776;SDS011;10047;42.490;26.012;2023-05-07T04:43:45;9.98;;;6.38;;
19776;SDS011;10047;42.490;26.012;2023-05-07T04:46:11;12.68;;;7.50;;
19776;SDS011;10047;42.490;26.012;2023-05-07T04:48:36;9.63;;;7.22;;
19776;SDS011;10047;42.490;26.012;2023-05-07T04:51:02;9.93;;;7.97;;
19776;SDS011;10047;42.490;26.012;2023-05-07T04:53:27;10.25;;;7.72;;
19776;SDS011;10047;42.490;26.012;2023-05-07T04:55:56;8.40;;;6.65;;
19776;SDS011;10047;42.490;26.012;2023-05-07T04:58:22;8.75;;;6.10;;
19776;SDS011;10047;42.490;26.012;2023-05-07T05:00:47;8.25;;;6.00;;
19776;SDS011;10047;42.490;26.012;2023-05-07T05:03:13;7.18;;;5.47;;
19776;SDS011;10047;42.490;26.012;2023-05-07T05:05:38;8.20;;;5.45;;
19776;SDS011;10047;42.490;26.012;2023-05-07T05:08:05;9.85;;;5.15;;
19776;SDS011;10047;42.490;26.012;2023-05-07T05:10:30;7.45;;;5.47;;
19776;SDS011;10047;42.490;26.012;2023-05-07T05:12:56;6.45;;;5.10;;
19776;SDS011;10047;42.490;26.012;2023-05-07T05:15:21;6.20;;;5.22;;
19776;SDS011;10047;42.490;26.012;2023-05-07T05:17:47;5.85;;;4.85;;
19776;SDS011;10047;42.490;26.012;2023-05-07T05:20:12;6.38;;;4.40;;
19776;SDS011;10047;42.490;26.012;2023-05-07T05:22:38;5.20;;;4.32;;
19776;SDS011;10047;42.490;26.012;2023-05-07T05:25:04;7.10;;;4.20;;
19776;SDS011;10047;42.490;26.012;2023-05-07T05:27:29;8.98;;;4.63;;
19776;SDS011;10047;42.490;26.012;2023-05-07T05:29:55;7.03;;;3.90;;
19776;SDS011;10047;42.490;26.012;2023-05-07T05:32:20;5.82;;;4.15;;
19776;SDS011;10047;42.490;26.012;2023-05-07T05:34:46;8.15;;;3.83;;
19776;SDS011;10047;42.490;26.012;2023-05-07T05:37:11;5.97;;;3.70;;
19776;SDS011;10047;42.490;26.012;2023-05-07T05:39:37;3.75;;;3.00;;
19776;SDS011;10047;42.490;26.012;2023-05-07T05:42:02;6.45;;;3.20;;
19776;SDS011;10047;42.490;26.012;2023-05-07T05:44:28;4.65;;;3.35;;
19776;SDS011;10047;42.490;26.012;2023-05-07T05:46:53;5.55;;;2.90;;
19776;SDS011;10047;42.490;26.012;2023-05-07T05:49:24;4.47;;;2.80;;
19776;SDS011;10047;42.490;26.012;2023-05-07T05:51:49;7.43;;;3.13;;
19776;SDS011;10047;42.490;26.012;2023-05-07T05:54:15;4.70;;;3.05;;
19776;SDS011;10047;42.490;26.012;2023-05-07T05:56:41;6.80;;;2.90;;
19776;SDS011;10047;42.490;26.012;2023-05-07T05:59:06;7.60;;;3.05;;
19776;SDS011;10047;42.490;26.012;2023-05-07T06:01:32;6.07;;;2.40;;
19776;SDS011;10047;42.490;26.012;2023-05-07T06:03:57;2.70;;;1.85;;
19776;SDS011;10047;42.490;26.012;2023-05-07T06:06:23;4.60;;;2.60;;
19776;SDS011;10047;42.490;26.012;2023-05-07T06:08:48;4.68;;;2.63;;
19776;SDS011;10047;42.490;26.012;2023-05-07T06:11:14;7.38;;;4.28;;
19776;SDS011;10047;42.490;26.012;2023-05-07T06:13:39;3.97;;;2.13;;
19776;SDS011;10047;42.490;26.012;2023-05-07T06:16:05;5.18;;;2.97;;
19776;SDS011;10047;42.490;26.012;2023-05-07T06:18:30;11.75;;;5.38;;
19776;SDS011;10047;42.490;26.012;2023-05-07T06:20:56;5.32;;;2.50;;
19776;SDS011;10047;42.490;26.012;2023-05-07T06:23:21;8.10;;;3.78;;
19776;SDS011;10047;42.490;26.012;2023-05-07T06:25:48;5.45;;;2.72;;
19776;SDS011;10047;42.490;26.012;2023-05-07T06:28:15;6.13;;;3.45;;
19776;SDS011;10047;42.490;26.012;2023-05-07T06:30:40;13.27;;;6.25;;
19776;SDS011;10047;42.490;26.012;2023-05-07T06:33:05;6.05;;;2.78;;
19776;SDS011;10047;42.490;26.012;2023-05-07T06:35:31;5.25;;;2.50;;
19776;SDS011;10047;42.490;26.012;2023-05-07T06:37:56;4.97;;;2.75;;
19776;SDS011;10047;42.490;26.012;2023-05-07T06:40:22;7.03;;;3.03;;
19776;SDS011;10047;42.490;26.012;2023-05-07T06:42:47;4.65;;;2.70;;
19776;SDS011;10047;42.490;26.012;2023-05-07T06:45:12;4.18;;;2.15;;
19776;SDS011;10047;42.490;26.012;2023-05-07T06:47:38;8.32;;;2.38;;
19776;SDS011;10047;42.490;26.012;2023-05-07T06:50:03;5.13;;;2.13;;
19776;SDS011;10047;42.490;26.012;2023-05-07T06:52:29;4.03;;;2.00;;
19776;SDS011;10047;42.490;26.012;2023-05-07T06:54:54;4.68;;;2.45;;
19776;SDS011;10047;42.490;26.012;2023-05-07T06:57:20;5.40;;;2.17;;
19776;SDS011;10047;42.490;26.012;2023-05-07T06:59:45;5.30;;;2.17;;
19776;SDS011;10047;42.490;26.012;2023-05-07T07:02:11;3.95;;;2.10;;
19776;SDS011;10047;42.490;26.012;2023-05-07T07:04:36;5.88;;;2.60;;
19776;SDS011;10047;42.490;26.012;2023-05-07T07:07:01;7.40;;;2.17;;
19776;SDS011;10047;42.490;26.012;2023-05-07T07:09:27;2.63;;;1.90;;
19776;SDS011;10047;42.490;26.012;2023-05-07T07:11:52;4.10;;;2.03;;
19776;SDS011;10047;42.490;26.012;2023-05-07T07:14:18;4.13;;;1.90;;
19776;SDS011;10047;42.490;26.012;2023-05-07T07:16:43;4.30;;;1.90;;
19776;SDS011;10047;42.490;26.012;2023-05-07T07:19:08;4.18;;;1.67;;
19776;SDS011;10047;42.490;26.012;2023-05-07T07:21:34;4.95;;;2.05;;
19776;SDS011;10047;42.490;26.012;2023-05-07T07:24:00;4.85;;;1.70;;
19776;SDS011;10047;42.490;26.012;2023-05-07T07:26:26;4.47;;;2.10;;
19776;SDS011;10047;42.490;26.012;2023-05-07T07:28:51;2.97;;;1.95;;
19776;SDS011;10047;42.490;26.012;2023-05-07T07:31:16;2.85;;;1.90;;
19776;SDS011;10047;42.490;26.012;2023-05-07T07:33:42;5.20;;;1.70;;
19776;SDS011;10047;42.490;26.012;2023-05-07T07:36:07;3.47;;;2.00;;
19776;SDS011;10047;42.490;26.012;2023-05-07T07:38:33;2.90;;;1.77;;
19776;SDS011;10047;42.490;26.012;2023-05-07T07:41:00;4.15;;;2.00;;
19776;SDS011;10047;42.490;26.012;2023-05-07T07:43:25;5.47;;;1.67;;
19776;SDS011;10047;42.490;26.012;2023-05-07T07:45:51;3.47;;;1.80;;
19776;SDS011;10047;42.490;26.012;2023-05-07T07:48:16;13.65;;;2.13;;
19776;SDS011;10047;42.490;26.012;2023-05-07T07:50:42;2.63;;;1.70;;
19776;SDS011;10047;42.490;26.012;2023-05-07T07:53:09;3.92;;;1.58;;
19776;SDS011;10047;42.490;26.012;2023-05-07T07:55:41;5.72;;;1.77;;
19776;SDS011;10047;42.490;26.012;2023-05-07T07:58:06;10.90;;;2.05;;
19776;SDS011;10047;42.490;26.012;2023-05-07T08:00:32;5.60;;;1.70;;
19776;SDS011;10047;42.490;26.012;2023-05-07T08:02:57;8.52;;;2.40;;
19776;SDS011;10047;42.490;26.012;2023-05-07T08:05:23;28.05;;;15.05;;
19776;SDS011;10047;42.490;26.012;2023-05-07T08:07:48;14.73;;;7.82;;
19776;SDS011;10047;42.490;26.012;2023-05-07T08:10:17;11.63;;;4.75;;
19776;SDS011;10047;42.490;26.012;2023-05-07T08:12:46;12.80;;;8.20;;
19776;SDS011;10047;42.490;26.012;2023-05-07T08:15:15;7.88;;;4.13;;
19776;SDS011;10047;42.490;26.012;2023-05-07T08:17:41;5.43;;;1.83;;
19776;SDS011;10047;42.490;26.012;2023-05-07T08:20:07;4.93;;;2.00;;
19776;SDS011;10047;42.490;26.012;2023-05-07T08:22:33;2.67;;;1.73;;
19776;SDS011;10047;42.490;26.012;2023-05-07T08:24:59;4.80;;;1.98;;
19776;SDS011;10047;42.490;26.012;2023-05-07T08:27:25;3.22;;;1.60;;
19776;SDS011;10047;42.490;26.012;2023-05-07T08:29:51;2.10;;;1.45;;
19776;SDS011;10047;42.490;26.012;2023-05-07T08:32:16;5.72;;;3.40;;
19776;SDS011;10047;42.490;26.012;2023-05-07T08:34:41;8.18;;;3.80;;
19776;SDS011;10047;42.490;26.012;2023-05-07T08:37:07;6.15;;;2.90;;
19776;SDS011;10047;42.490;26.012;2023-05-07T08:39:32;2.13;;;1.65;;
19776;SDS011;10047;42.490;26.012;2023-05-07T08:41:58;4.97;;;2.05;;
19776;SDS011;10047;42.490;26.012;2023-05-07T08:44:29;3.60;;;1.70;;
19776;SDS011;10047;42.490;26.012;2023-05-07T08:46:59;8.77;;;3.60;;
19776;SDS011;10047;42.490;26.012;2023-05-07T08:49:27;6.22;;;2.92;;
19776;SDS011;10047;42.490;26.012;2023-05-07T08:51:53;3.88;;;1.73;;
19776;SDS011;10047;42.490;26.012;2023-05-07T08:54:18;4.60;;;1.95;;
19776;SDS011;10047;42.490;26.012;2023-05-07T08:56:46;4.28;;;1.90;;
19776;SDS011;10047;42.490;26.012;2023-05-07T08:59:11;5.75;;;2.47;;
19776;SDS011;10047;42.490;26.012;2023-05-07T09:01:37;5.00;;;2.00;;
19776;SDS011;10047;42.490;26.012;2023-05-07T09:04:03;6.57;;;1.50;;
19776;SDS011;10047;42.490;26.012;2023-05-07T09:06:30;5.70;;;1.90;;
19776;SDS011;10047;42.490;26.012;2023-05-07T09:08:56;3.25;;;1.70;;
19776;SDS011;10047;42.490;26.012;2023-05-07T09:11:23;4.85;;;1.90;;
19776;SDS011;10047;42.490;26.012;2023-05-07T09:13:53;4.10;;;1.63;;
19776;SDS011;10047;42.490;26.012;2023-05-07T09:16:21;4.55;;;1.90;;
19776;SDS011;10047;42.490;26.012;2023-05-07T09:18:48;5.63;;;1.65;;
19776;SDS011;10047;42.490;26.012;2023-05-07T09:21:17;3.13;;;1.60;;
19776;SDS011;10047;42.490;26.012;2023-05-07T09:23:43;2.78;;;1.67;;
19776;SDS011;10047;42.490;26.012;2023-05-07T09:26:08;3.97;;;2.03;;
19776;SDS011;10047;42.490;26.012;2023-05-07T09:28:39;3.50;;;1.73;;
19776;SDS011;10047;42.490;26.012;2023-05-07T09:31:09;4.03;;;1.52;;
19776;SDS011;10047;42.490;26.012;2023-05-07T09:33:36;4.00;;;1.75;;
19776;SDS011;10047;42.490;26.012;2023-05-07T09:36:02;6.35;;;1.83;;
19776;SDS011;10047;42.490;26.012;2023-05-07T09:38:28;3.28;;;1.83;;
19776;SDS011;10047;42.490;26.012;2023-05-07T09:41:01;5.30;;;1.75;;
19776;SDS011;10047;42.490;26.012;2023-05-07T09:43:31;3.85;;;2.00;;
19776;SDS011;10047;42.490;26.012;2023-05-07T09:45:57;2.92;;;1.60;;
19776;SDS011;10047;42.490;26.012;2023-05-07T09:48:24;3.20;;;1.80;;
19776;SDS011;10047;42.490;26.012;2023-05-07T09:50:51;3.58;;;1.60;;
19776;SDS011;10047;42.490;26.012;2023-05-07T09:53:21;3.53;;;1.60;;
19776;SDS011;10047;42.490;26.012;2023-05-07T09:55:47;5.38;;;1.77;;
19776;SDS011;10047;42.490;26.012;2023-05-07T09:58:13;3.83;;;1.60;;
19776;SDS011;10047;42.490;26.012;2023-05-07T10:00:41;4.28;;;1.90;;
19776;SDS011;10047;42.490;26.012;2023-05-07T10:03:07;7.60;;;1.60;;
19776;SDS011;10047;42.490;26.012;2023-05-07T10:05:34;3.83;;;1.50;;
19776;SDS011;10047;42.490;26.012;2023-05-07T10:08:01;4.32;;;1.85;;
19776;SDS011;10047;42.490;26.012;2023-05-07T10:10:27;4.90;;;1.65;;
19776;SDS011;10047;42.490;26.012;2023-05-07T10:12:54;4.18;;;1.80;;
19776;SDS011;10047;42.490;26.012;2023-05-07T10:15:20;5.35;;;1.85;;
19776;SDS011;10047;42.490;26.012;2023-05-07T10:17:46;3.70;;;1.70;;
19776;SDS011;10047;42.490;26.012;2023-05-07T10:20:13;4.18;;;1.55;;
19776;SDS011;10047;42.490;26.012;2023-05-07T10:22:45;4.45;;;1.60;;
19776;SDS011;10047;42.490;26.012;2023-05-07T10:25:23;4.13;;;1.70;;
19776;SDS011;10047;42.490;26.012;2023-05-07T10:27:52;3.55;;;1.80;;
19776;SDS011;10047;42.490;26.012;2023-05-07T10:33:13;2.78;;;1.90;;
19776;SDS011;10047;42.490;26.012;2023-05-07T10:35:42;5.10;;;1.60;;
19776;SDS011;10047;42.490;26.012;2023-05-07T10:38:10;5.55;;;1.60;;
19776;SDS011;10047;42.490;26.012;2023-05-07T10:40:35;4.47;;;1.67;;
19776;SDS011;10047;42.490;26.012;2023-05-07T10:43:02;2.95;;;1.35;;
19776;SDS011;10047;42.490;26.012;2023-05-07T10:45:31;4.85;;;1.60;;
19776;SDS011;10047;42.490;26.012;2023-05-07T10:48:11;4.70;;;1.80;;
19776;SDS011;10047;42.490;26.012;2023-05-07T10:50:38;3.58;;;1.70;;
19776;SDS011;10047;42.490;26.012;2023-05-07T10:55:53;5.43;;;1.67;;
19776;SDS011;10047;42.490;26.012;2023-05-07T10:58:54;3.03;;;1.60;;
19776;SDS011;10047;42.490;26.012;2023-05-07T11:01:53;2.85;;;1.67;;
19776;SDS011;10047;42.490;26.012;2023-05-07T11:04:16;3.65;;;1.55;;
19776;SDS011;10047;42.490;26.012;2023-05-07T11:07:00;4.47;;;1.67;;
19776;SDS011;10047;42.490;26.012;2023-05-07T11:15:12;3.85;;;1.60;;
19776;SDS011;10047;42.490;26.012;2023-05-07T11:20:19;3.45;;;1.50;;
19776;SDS011;10047;42.490;26.012;2023-05-07T11:22:45;3.85;;;1.55;;
19776;SDS011;10047;42.490;26.012;2023-05-07T11:25:11;5.13;;;1.45;;
19776;SDS011;10047;42.490;26.012;2023-05-07T11:27:44;4.47;;;1.42;;
19776;SDS011;10047;42.490;26.012;2023-05-07T11:30:10;3.03;;;1.52;;
19776;SDS011;10047;42.490;26.012;2023-05-07T11:32:41;4.68;;;1.50;;
19776;SDS011;10047;42.490;26.012;2023-05-07T11:35:07;2.75;;;1.52;;
19776;SDS011;10047;42.490;26.012;2023-05-07T11:37:33;5.45;;;1.83;;
19776;SDS011;10047;42.490;26.012;2023-05-07T11:40:08;3.92;;;1.65;;
19776;SDS011;10047;42.490;26.012;2023-05-07T11:42:36;3.92;;;1.77;;
19776;SDS011;10047;42.490;26.012;2023-05-07T11:45:03;2.70;;;1.90;;
19776;SDS011;10047;42.490;26.012;2023-05-07T11:47:32;2.95;;;1.48;;
19776;SDS011;10047;42.490;26.012;2023-05-07T11:50:02;2.95;;;1.48;;
19776;SDS011;10047;42.490;26.012;2023-05-07T11:52:30;4.40;;;1.65;;
19776;SDS011;10047;42.490;26.012;2023-05-07T11:54:56;6.97;;;1.33;;
19776;SDS011;10047;42.490;26.012;2023-05-07T11:57:23;5.68;;;1.70;;
19776;SDS011;10047;42.490;26.012;2023-05-07T11:59:56;5.43;;;1.65;;
19776;SDS011;10047;42.490;26.012;2023-05-07T12:02:22;5.10;;;1.60;;
19776;SDS011;10047;42.490;26.012;2023-05-07T12:04:49;4.38;;;1.90;;
19776;SDS011;10047;42.490;26.012;2023-05-07T12:07:15;3.95;;;1.70;;
19776;SDS011;10047;42.490;26.012;2023-05-07T12:09:41;4.30;;;1.50;;
19776;SDS011;10047;42.490;26.012;2023-05-07T12:12:08;3.25;;;1.70;;
19776;SDS011;10047;42.490;26.012;2023-05-07T12:14:42;2.10;;;1.60;;
19776;SDS011;10047;42.490;26.012;2023-05-07T12:17:09;4.50;;;1.45;;
19776;SDS011;10047;42.490;26.012;2023-05-07T12:19:37;3.90;;;1.60;;
19776;SDS011;10047;42.490;26.012;2023-05-07T12:22:04;3.97;;;1.60;;
19776;SDS011;10047;42.490;26.012;2023-05-07T12:24:46;4.07;;;1.73;;
19776;SDS011;10047;42.490;26.012;2023-05-07T12:27:15;2.15;;;1.50;;
19776;SDS011;10047;42.490;26.012;2023-05-07T12:29:47;4.00;;;1.60;;
19776;SDS011;10047;42.490;26.012;2023-05-07T12:32:17;3.03;;;1.50;;
19776;SDS011;10047;42.490;26.012;2023-05-07T12:34:44;5.38;;;1.65;;
19776;SDS011;10047;42.490;26.012;2023-05-07T12:37:10;2.33;;;1.40;;
19776;SDS011;10047;42.490;26.012;2023-05-07T12:39:36;2.88;;;1.50;;
19776;SDS011;10047;42.490;26.012;2023-05-07T12:42:01;4.60;;;1.83;;
19776;SDS011;10047;42.490;26.012;2023-05-07T12:44:33;3.40;;;1.60;;
19776;SDS011;10047;42.490;26.012;2023-05-07T12:47:03;4.20;;;1.67;;
19776;SDS011;10047;42.490;26.012;2023-05-07T12:49:28;2.80;;;1.38;;
19776;SDS011;10047;42.490;26.012;2023-05-07T12:51:54;2.88;;;1.70;;
19776;SDS011;10047;42.490;26.012;2023-05-07T12:54:33;6.03;;;1.90;;
19776;SDS011;10047;42.490;26.012;2023-05-07T12:57:06;4.97;;;1.42;;
19776;SDS011;10047;42.490;26.012;2023-05-07T13:02:02;2.55;;;1.27;;
19776;SDS011;10047;42.490;26.012;2023-05-07T13:04:28;4.53;;;1.48;;
19776;SDS011;10047;42.490;26.012;2023-05-07T13:06:53;4.20;;;1.40;;
19776;SDS011;10047;42.490;26.012;2023-05-07T13:09:19;4.03;;;1.48;;
19776;SDS011;10047;42.490;26.012;2023-05-07T13:11:44;4.55;;;1.50;;
19776;SDS011;10047;42.490;26.012;2023-05-07T13:14:10;3.17;;;1.45;;
19776;SDS011;10047;42.490;26.012;2023-05-07T13:16:35;3.20;;;1.60;;
19776;SDS011;10047;42.490;26.012;2023-05-07T13:19:00;3.25;;;1.70;;
19776;SDS011;10047;42.490;26.012;2023-05-07T13:21:26;5.53;;;1.60;;
19776;SDS011;10047;42.490;26.012;2023-05-07T13:23:51;3.95;;;2.15;;
19776;SDS011;10047;42.490;26.012;2023-05-07T13:26:17;4.90;;;1.50;;
19776;SDS011;10047;42.490;26.012;2023-05-07T13:28:43;2.92;;;1.40;;
19776;SDS011;10047;42.490;26.012;2023-05-07T13:31:09;3.25;;;1.80;;
19776;SDS011;10047;42.490;26.012;2023-05-07T13:33:35;3.35;;;1.60;;
19776;SDS011;10047;42.490;26.012;2023-05-07T13:36:01;6.32;;;1.90;;
19776;SDS011;10047;42.490;26.012;2023-05-07T13:38:29;3.95;;;1.60;;
19776;SDS011;10047;42.490;26.012;2023-05-07T13:40:54;4.53;;;1.58;;
19776;SDS011;10047;42.490;26.012;2023-05-07T13:43:20;3.13;;;1.70;;
19776;SDS011;10047;42.490;26.012;2023-05-07T13:45:45;2.22;;;1.40;;
19776;SDS011;10047;42.490;26.012;2023-05-07T13:48:10;4.05;;;1.55;;
19776;SDS011;10047;42.490;26.012;2023-05-07T13:50:36;4.70;;;1.60;;
19776;SDS011;10047;42.490;26.012;2023-05-07T13:53:01;2.97;;;1.63;;
19776;SDS011;10047;42.490;26.012;2023-05-07T13:55:28;3.35;;;1.70;;
19776;SDS011;10047;42.490;26.012;2023-05-07T13:58:00;1.75;;;1.38;;
19776;SDS011;10047;42.490;26.012;2023-05-07T14:00:28;2.42;;;1.52;;
19776;SDS011;10047;42.490;26.012;2023-05-07T14:02:54;5.55;;;1.70;;
19776;SDS011;10047;42.490;26.012;2023-05-07T14:05:20;4.88;;;1.85;;
19776;SDS011;10047;42.490;26.012;2023-05-07T14:07:48;2.70;;;1.50;;
19776;SDS011;10047;42.490;26.012;2023-05-07T14:10:16;2.63;;;1.80;;
19776;SDS011;10047;42.490;26.012;2023-05-07T14:12:43;5.40;;;1.70;;
19776;SDS011;10047;42.490;26.012;2023-05-07T14:15:09;3.88;;;1.92;;
19776;SDS011;10047;42.490;26.012;2023-05-07T14:17:35;3.75;;;1.80;;
19776;SDS011;10047;42.490;26.012;2023-05-07T14:20:01;8.27;;;1.77;;
19776;SDS011;10047;42.490;26.012;2023-05-07T14:22:26;4.15;;;1.60;;
19776;SDS011;10047;42.490;26.012;2023-05-07T14:24:52;3.72;;;1.70;;
19776;SDS011;10047;42.490;26.012;2023-05-07T14:27:17;2.58;;;1.67;;
19776;SDS011;10047;42.490;26.012;2023-05-07T14:29:42;3.22;;;1.88;;
19776;SDS011;10047;42.490;26.012;2023-05-07T14:32:08;4.45;;;1.85;;
19776;SDS011;10047;42.490;26.012;2023-05-07T14:34:33;3.75;;;1.70;;
19776;SDS011;10047;42.490;26.012;2023-05-07T14:36:59;2.67;;;1.70;;
19776;SDS011;10047;42.490;26.012;2023-05-07T14:39:26;4.45;;;1.58;;
19776;SDS011;10047;42.490;26.012;2023-05-07T14:41:52;3.03;;;1.35;;
19776;SDS011;10047;42.490;26.012;2023-05-07T14:44:19;3.78;;;1.23;;
19776;SDS011;10047;42.490;26.012;2023-05-07T14:46:45;2.25;;;1.50;;